Time;durP1;ratioP1;P1;durP2;ratioP2;P2;SDS_P1;SDS_P2;PMS_P1;PMS_P2;Temp;Humidity;BMP_temperature;BMP_pressure;BME280_temperature;BME280_humidity;BME280_pressure;Samples;Min_cycle;Max_cycle;Signal;HPM_P1;HPM_P2
2021/05/16 00:00:36;;;;;;;5.07;2.88;;;11.00;91.30;;;;;;2079714;28;21779;-82
2021/05/16 00:01:37;;;;;;;5.70;3.03;;;11.00;91.30;;;;;;2073957;28;20354;-82
2021/05/16 00:02:38;;;;;;;5.00;2.92;;;11.00;91.20;;;;;;2079671;28;20029;-82
2021/05/16 00:03:39;;;;;;;4.88;2.47;;;11.00;91.20;;;;;;2080069;28;20026;-82
2021/05/16 00:04:39;;;;;;;5.18;2.83;;;10.90;91.20;;;;;;2082044;28;20040;-82
2021/05/16 00:05:40;;;;;;;4.10;2.65;;;11.00;91.20;;;;;;2073757;28;20116;-82
2021/05/16 00:06:41;;;;;;;3.60;2.42;;;11.00;91.20;;;;;;2071992;28;20464;-82
2021/05/16 00:07:41;;;;;;;4.70;2.63;;;10.90;91.20;;;;;;2062591;28;20034;-82
2021/05/16 00:08:42;;;;;;;4.38;2.88;;;11.00;91.20;;;;;;2070352;28;20123;-82
2021/05/16 00:09:43;;;;;;;3.60;2.30;;;11.00;91.20;;;;;;2064958;28;20759;-82
2021/05/16 00:10:44;;;;;;;5.40;3.10;;;11.00;91.20;;;;;;2074583;28;20034;-82
2021/05/16 00:11:45;;;;;;;5.22;2.90;;;11.00;91.20;;;;;;2079855;28;20136;-82
2021/05/16 00:12:46;;;;;;;4.55;2.97;;;11.00;91.20;;;;;;2063586;28;20468;-82
2021/05/16 00:13:47;;;;;;;4.53;2.83;;;11.00;91.20;;;;;;2068655;28;20495;-82
2021/05/16 00:14:48;;;;;;;4.80;3.10;;;11.00;91.20;;;;;;2069167;28;20598;-82
2021/05/16 00:15:49;;;;;;;5.10;3.03;;;11.00;91.20;;;;;;2073928;28;20079;-82
2021/05/16 00:16:50;;;;;;;5.05;3.00;;;11.00;91.20;;;;;;2073703;28;20569;-82
2021/05/16 00:17:51;;;;;;;5.43;3.10;;;11.00;91.20;;;;;;2067530;28;20074;-82
2021/05/16 00:18:52;;;;;;;6.22;3.45;;;11.10;91.20;;;;;;2072746;28;20072;-82
2021/05/16 00:19:53;;;;;;;5.00;3.20;;;11.10;91.20;;;;;;2066814;28;20038;-82
2021/05/16 00:20:53;;;;;;;6.22;3.40;;;11.10;91.20;;;;;;2078208;28;20025;-82
2021/05/16 00:21:54;;;;;;;5.25;3.30;;;11.10;91.20;;;;;;2068407;28;20026;-82
2021/05/16 00:22:55;;;;;;;5.68;3.17;;;11.10;91.20;;;;;;2078836;28;20056;-82
2021/05/16 00:23:56;;;;;;;6.30;3.80;;;11.10;91.20;;;;;;2070152;28;20026;-82
2021/05/16 00:24:57;;;;;;;5.82;3.50;;;11.10;91.20;;;;;;2069489;28;20064;-82
2021/05/16 00:25:57;;;;;;;6.55;3.80;;;11.10;91.20;;;;;;2064950;28;20031;-83
2021/05/16 00:26:58;;;;;;;6.68;3.75;;;11.10;91.20;;;;;;2063905;28;20026;-82
2021/05/16 00:27:59;;;;;;;7.15;3.97;;;11.10;91.10;;;;;;2068863;28;20038;-82
2021/05/16 00:29:00;;;;;;;6.18;4.18;;;11.10;91.10;;;;;;2055782;28;20429;-81
2021/05/16 00:30:00;;;;;;;7.20;3.72;;;11.10;91.10;;;;;;2076182;28;20538;-82
2021/05/16 00:31:01;;;;;;;6.25;3.42;;;11.10;91.10;;;;;;2079673;28;20017;-82
2021/05/16 00:32:03;;;;;;;7.88;4.20;;;11.10;91.20;;;;;;2075298;28;20058;-82
2021/05/16 00:33:04;;;;;;;6.68;3.65;;;11.10;91.20;;;;;;2078864;28;20018;-82
2021/05/16 00:34:05;;;;;;;6.43;3.50;;;11.10;91.20;;;;;;2074371;28;20025;-82
2021/05/16 00:35:07;;;;;;;7.25;3.70;;;11.10;91.20;;;;;;2072555;28;20586;-82
2021/05/16 00:36:08;;;;;;;7.63;3.60;;;11.00;91.10;;;;;;2082507;28;20095;-82
2021/05/16 00:37:08;;;;;;;7.00;3.70;;;11.10;91.20;;;;;;2080887;28;20467;-81
2021/05/16 00:38:09;;;;;;;6.65;3.83;;;11.10;91.20;;;;;;2081997;28;20239;-81
2021/05/16 00:39:10;;;;;;;7.30;3.80;;;11.10;91.20;;;;;;2077679;28;20041;-82
2021/05/16 00:40:12;;;;;;;7.13;3.47;;;11.10;91.20;;;;;;2077021;28;20724;-82
2021/05/16 00:41:13;;;;;;;8.88;3.60;;;11.10;91.20;;;;;;2074168;28;21997;-82
2021/05/16 00:42:14;;;;;;;8.52;3.63;;;11.10;91.20;;;;;;2071906;28;20026;-82
2021/05/16 00:43:15;;;;;;;6.38;3.90;;;11.10;91.20;;;;;;2062460;28;20030;-82
2021/05/16 00:44:16;;;;;;;6.75;3.70;;;11.10;91.20;;;;;;2055043;28;20467;-82
2021/05/16 00:45:19;;;;;;;6.43;3.42;;;11.10;91.20;;;;;;2062450;28;20027;-82
2021/05/16 00:46:20;;;;;;;5.55;3.47;;;11.10;91.20;;;;;;2080165;28;20029;-82
2021/05/16 00:47:20;;;;;;;7.32;3.70;;;11.10;91.20;;;;;;2076503;28;20029;-81
2021/05/16 00:48:21;;;;;;;7.18;3.78;;;11.10;91.20;;;;;;2077749;28;20075;-82
2021/05/16 00:49:22;;;;;;;7.22;3.35;;;11.10;91.20;;;;;;2073673;28;20025;-82
2021/05/16 00:50:26;;;;;;;8.30;3.88;;;11.10;91.20;;;;;;2062448;28;20042;-82
2021/05/16 00:51:27;;;;;;;6.55;3.65;;;11.10;91.20;;;;;;2074891;28;20017;-82
2021/05/16 00:52:28;;;;;;;9.55;3.70;;;11.10;91.20;;;;;;2074371;28;20127;-82
2021/05/16 00:53:28;;;;;;;6.78;4.10;;;11.10;91.20;;;;;;2062154;28;20022;-82
2021/05/16 00:54:29;;;;;;;8.88;3.55;;;11.10;91.20;;;;;;2064081;28;20023;-82
2021/05/16 00:55:30;;;;;;;7.95;3.80;;;11.10;91.20;;;;;;2078793;28;20625;-81
2021/05/16 00:56:31;;;;;;;6.68;3.38;;;11.10;91.20;;;;;;2086587;28;20041;-82
2021/05/16 00:57:32;;;;;;;6.97;3.50;;;11.10;91.20;;;;;;2065113;28;20424;-82
2021/05/16 00:58:32;;;;;;;5.85;3.05;;;11.10;91.20;;;;;;2065430;28;20412;-82
2021/05/16 00:59:33;;;;;;;5.20;3.05;;;11.10;91.20;;;;;;2078055;28;20088;-82
2021/05/16 01:00:40;;;;;;;6.57;3.00;;;11.10;91.20;;;;;;2071929;28;20045;-82
2021/05/16 01:01:41;;;;;;;7.25;2.80;;;11.10;91.20;;;;;;2075497;28;20065;-82
2021/05/16 01:02:43;;;;;;;6.85;3.50;;;11.10;91.20;;;;;;2079043;28;20057;-83
2021/05/16 01:03:44;;;;;;;6.45;3.00;;;11.10;91.20;;;;;;2066776;28;20022;-83
2021/05/16 01:04:44;;;;;;;8.00;3.38;;;11.10;91.40;;;;;;2056024;28;20054;-81
2021/05/16 01:05:46;;;;;;;8.07;3.40;;;11.10;91.20;;;;;;2063560;28;20030;-83
2021/05/16 01:06:46;;;;;;;5.43;2.97;;;11.10;91.20;;;;;;2076781;28;20464;-82
2021/05/16 01:07:48;;;;;;;7.32;3.40;;;11.10;91.20;;;;;;2069819;28;20026;-82
2021/05/16 01:08:49;;;;;;;5.47;2.90;;;11.10;91.20;;;;;;2077310;28;20037;-82
2021/05/16 01:09:50;;;;;;;6.20;3.10;;;11.10;91.20;;;;;;2065804;28;20046;-83
2021/05/16 01:10:51;;;;;;;5.95;3.00;;;11.10;91.20;;;;;;2063891;28;20035;-82
2021/05/16 01:11:52;;;;;;;7.18;3.13;;;11.10;91.20;;;;;;2066895;28;20447;-83
2021/05/16 01:12:54;;;;;;;10.23;3.50;;;11.10;91.20;;;;;;2065718;28;20563;-82
2021/05/16 01:13:55;;;;;;;9.60;3.63;;;11.10;91.20;;;;;;2067405;28;20496;-82
2021/05/16 01:14:59;;;;;;;7.68;3.65;;;11.10;91.20;;;;;;2077191;28;20114;-81
2021/05/16 01:16:00;;;;;;;7.97;3.40;;;11.10;91.20;;;;;;2080626;28;20483;-81
2021/05/16 01:17:01;;;;;;;7.15;3.47;;;11.00;91.20;;;;;;2064887;28;20038;-81
2021/05/16 01:18:02;;;;;;;7.20;3.05;;;11.00;91.20;;;;;;2071740;28;20026;-81
2021/05/16 01:19:03;;;;;;;8.00;3.42;;;11.00;91.20;;;;;;2071153;28;20037;-81
2021/05/16 01:20:10;;;;;;;6.50;3.20;;;11.00;91.20;;;;;;2066410;28;20022;-81
2021/05/16 01:21:15;;;;;;;7.80;3.30;;;10.90;91.20;;;;;;2073062;28;20152;-81
2021/05/16 01:22:16;;;;;;;9.23;3.17;;;10.90;91.30;;;;;;2076837;28;20022;-81
2021/05/16 01:23:21;;;;;;;6.40;3.25;;;11.00;91.30;;;;;;2080665;28;20041;-81
2021/05/16 01:24:23;;;;;;;6.35;3.00;;;10.90;91.30;;;;;;2071572;28;20028;-80
2021/05/16 01:25:25;;;;;;;6.22;3.25;;;10.90;91.30;;;;;;2062893;28;20041;-81
2021/05/16 01:26:26;;;;;;;8.65;3.08;;;10.90;91.30;;;;;;2056144;28;20126;-81
2021/05/16 01:27:27;;;;;;;8.48;3.22;;;10.90;91.30;;;;;;2056007;28;20026;-81
2021/05/16 01:28:27;;;;;;;6.22;3.05;;;10.90;91.40;;;;;;2049947;28;20075;-81
2021/05/16 01:29:28;;;;;;;6.60;3.33;;;10.90;91.40;;;;;;2048575;28;20055;-81
2021/05/16 01:30:29;;;;;;;5.72;3.05;;;11.00;91.40;;;;;;2056645;28;20073;-81
2021/05/16 01:31:30;;;;;;;6.68;2.97;;;11.00;91.40;;;;;;2068351;28;20026;-81
2021/05/16 01:32:31;;;;;;;8.02;3.40;;;11.00;91.40;;;;;;2075191;28;20046;-81
2021/05/16 01:33:32;;;;;;;7.85;3.20;;;11.00;91.40;;;;;;2077445;28;20025;-81
2021/05/16 01:34:32;;;;;;;6.57;3.00;;;11.00;91.40;;;;;;2076057;28;20454;-82
2021/05/16 01:35:34;;;;;;;7.47;3.15;;;11.00;91.40;;;;;;2073242;28;20045;-82
2021/05/16 01:36:35;;;;;;;6.78;2.85;;;11.00;91.40;;;;;;2072386;28;20072;-82
2021/05/16 01:37:36;;;;;;;8.30;3.40;;;11.00;91.40;;;;;;2074299;28;20031;-81
2021/05/16 01:38:36;;;;;;;7.03;2.90;;;11.00;91.40;;;;;;2071958;28;20538;-81
2021/05/16 01:39:38;;;;;;;9.85;3.20;;;11.00;91.40;;;;;;2063887;28;20038;-82
2021/05/16 01:40:40;;;;;;;7.43;3.28;;;10.90;91.40;;;;;;2065221;28;20038;-82
2021/05/16 01:41:41;;;;;;;10.27;3.55;;;11.00;91.40;;;;;;2072195;28;20040;-82
2021/05/16 01:42:51;;;;;;;6.82;2.95;;;10.90;91.50;;;;;;2070777;28;20029;-81
2021/05/16 01:43:53;;;;;;;7.47;2.83;;;11.00;91.50;;;;;;2070131;28;20123;-82
2021/05/16 01:45:01;;;;;;;8.80;3.13;;;10.90;91.50;;;;;;2075206;28;20034;-81
2021/05/16 01:46:04;;;;;;;6.72;2.92;;;11.00;91.50;;;;;;2070876;28;20550;-81
2021/05/16 01:47:05;;;;;;;6.78;2.90;;;11.00;91.50;;;;;;2063181;28;20435;-82
2021/05/16 01:48:06;;;;;;;7.72;2.80;;;10.90;91.50;;;;;;2066384;28;20037;-82
2021/05/16 01:49:07;;;;;;;8.20;3.03;;;11.00;91.50;;;;;;2071808;28;20064;-81
2021/05/16 01:50:15;;;;;;;7.80;2.90;;;10.90;91.50;;;;;;2076294;28;20607;-82
2021/05/16 01:51:17;;;;;;;9.20;3.13;;;11.00;91.50;;;;;;2071863;28;20025;-82
2021/05/16 01:52:19;;;;;;;8.18;2.97;;;10.90;91.50;;;;;;2068835;28;20017;-81
2021/05/16 01:53:21;;;;;;;8.48;2.90;;;10.90;91.50;;;;;;2064831;28;20034;-82
2021/05/16 01:54:21;;;;;;;6.65;3.10;;;10.90;91.50;;;;;;2056945;28;20023;-81
2021/05/16 01:55:22;;;;;;;10.88;3.20;;;10.90;91.50;;;;;;2041654;28;20569;-82
2021/05/16 01:56:28;;;;;;;7.20;2.90;;;10.90;91.60;;;;;;2059313;28;20038;-82
2021/05/16 01:57:28;;;;;;;10.50;3.45;;;10.90;91.50;;;;;;2081869;28;20561;-81
2021/05/16 01:58:31;;;;;;;8.43;3.50;;;10.90;91.50;;;;;;2080503;28;20030;-82
2021/05/16 01:59:32;;;;;;;8.07;3.03;;;10.90;91.60;;;;;;2070663;28;20104;-82
2021/05/16 02:00:39;;;;;;;9.77;3.03;;;10.90;91.50;;;;;;2065990;28;20034;-82
2021/05/16 02:01:40;;;;;;;9.55;3.80;;;10.90;91.60;;;;;;2077252;28;20105;-82
2021/05/16 02:02:42;;;;;;;8.80;3.05;;;10.90;91.60;;;;;;2073825;28;20057;-81
2021/05/16 02:03:44;;;;;;;11.63;4.03;;;10.90;91.60;;;;;;2062815;28;20539;-81
2021/05/16 02:04:46;;;;;;;9.13;3.40;;;10.90;91.60;;;;;;2056932;28;20066;-82
2021/05/16 02:05:49;;;;;;;9.70;3.50;;;10.80;91.60;;;;;;2065656;28;20022;-82
2021/05/16 02:06:50;;;;;;;12.05;3.55;;;10.80;91.60;;;;;;2082916;28;20108;-82
2021/05/16 02:07:51;;;;;;;7.53;3.38;;;10.80;91.60;;;;;;2082068;28;20017;-82
2021/05/16 02:08:52;;;;;;;8.80;3.22;;;10.80;91.60;;;;;;2080479;28;20030;-82
2021/05/16 02:09:54;;;;;;;11.05;3.13;;;10.80;91.60;;;;;;2076560;28;20050;-81
2021/05/16 02:10:54;;;;;;;12.02;4.20;;;10.80;91.60;;;;;;2079763;28;20064;-81
2021/05/16 02:11:55;;;;;;;11.95;4.03;;;10.80;91.60;;;;;;2079251;28;20120;-82
2021/05/16 02:12:56;;;;;;;11.23;4.00;;;10.80;91.60;;;;;;2077124;28;20036;-81
2021/05/16 02:13:57;;;;;;;8.48;3.47;;;10.80;91.60;;;;;;2076030;28;20503;-81
2021/05/16 02:14:57;;;;;;;13.23;3.58;;;10.80;91.60;;;;;;2071336;28;20033;-81
2021/05/16 02:15:58;;;;;;;10.73;4.07;;;10.80;91.90;;;;;;2072084;28;20068;-81
2021/05/16 02:17:01;;;;;;;9.60;4.10;;;10.80;91.60;;;;;;2070219;28;20171;-81
2021/05/16 02:18:02;;;;;;;12.25;4.10;;;10.80;91.60;;;;;;2070797;28;20025;-81
2021/05/16 02:19:03;;;;;;;9.38;3.72;;;10.80;91.70;;;;;;2081663;28;20029;-81
2021/05/16 02:20:04;;;;;;;9.13;3.90;;;10.80;91.70;;;;;;2073890;28;20034;-81
2021/05/16 02:21:09;;;;;;;10.13;3.70;;;10.80;91.70;;;;;;2079432;28;20068;-81
2021/05/16 02:22:10;;;;;;;10.23;4.13;;;10.80;91.70;;;;;;2066759;28;20113;-82
2021/05/16 02:23:11;;;;;;;9.48;3.75;;;10.80;91.70;;;;;;2070808;28;20034;-82
2021/05/16 02:24:12;;;;;;;9.13;3.80;;;10.80;91.70;;;;;;2059099;28;20029;-82
2021/05/16 02:25:14;;;;;;;8.38;3.75;;;10.80;91.70;;;;;;2068228;28;20034;-81
2021/05/16 02:26:14;;;;;;;10.57;3.80;;;10.80;91.70;;;;;;2072149;28;20391;-82
2021/05/16 02:27:17;;;;;;;9.65;4.22;;;10.80;91.70;;;;;;2063568;28;20073;-82
2021/05/16 02:28:18;;;;;;;12.65;4.45;;;10.80;91.70;;;;;;2071233;28;20537;-82
2021/05/16 02:29:19;;;;;;;10.77;4.55;;;10.80;91.60;;;;;;2073671;28;20030;-82
2021/05/16 02:30:20;;;;;;;8.77;4.20;;;10.80;91.60;;;;;;2064576;28;20120;-82
2021/05/16 02:31:21;;;;;;;10.77;3.78;;;10.80;91.60;;;;;;2065332;28;20496;-81
2021/05/16 02:32:21;;;;;;;9.90;4.00;;;10.80;91.70;;;;;;2071569;28;20133;-82
2021/05/16 02:33:22;;;;;;;8.48;3.75;;;10.80;91.70;;;;;;2063721;28;20023;-82
2021/05/16 02:34:23;;;;;;;11.32;3.80;;;10.80;91.70;;;;;;2056938;28;20097;-81
2021/05/16 02:35:24;;;;;;;10.02;4.03;;;10.80;91.70;;;;;;2063451;28;20026;-82
2021/05/16 02:36:24;;;;;;;9.18;3.75;;;10.80;91.70;;;;;;2080758;28;20411;-82
2021/05/16 02:37:25;;;;;;;9.50;4.00;;;10.80;91.70;;;;;;2066841;28;20061;-82
2021/05/16 02:38:26;;;;;;;12.27;4.20;;;10.80;91.70;;;;;;2065659;28;20038;-82
2021/05/16 02:39:26;;;;;;;13.00;4.28;;;10.70;91.70;;;;;;2073505;28;20022;-82
2021/05/16 02:40:27;;;;;;;9.88;3.70;;;10.80;91.70;;;;;;2073245;28;20905;-81
2021/05/16 02:41:28;;;;;;;9.93;4.10;;;10.70;91.70;;;;;;2072300;28;20531;-82
2021/05/16 02:42:28;;;;;;;8.23;3.83;;;10.80;91.70;;;;;;2068664;28;20029;-82
2021/05/16 02:43:29;;;;;;;9.45;3.92;;;10.80;91.70;;;;;;2071474;28;20530;-81
2021/05/16 02:44:30;;;;;;;9.43;3.70;;;10.80;91.70;;;;;;2079096;28;20132;-82
2021/05/16 02:45:31;;;;;;;11.23;3.80;;;10.80;91.70;;;;;;2079944;28;20394;-82
2021/05/16 02:46:32;;;;;;;12.40;4.30;;;10.80;91.70;;;;;;2058351;28;20497;-82
2021/05/16 02:47:32;;;;;;;10.45;3.88;;;10.80;91.70;;;;;;2064156;28;20026;-81
2021/05/16 02:48:33;;;;;;;8.68;3.50;;;10.80;91.70;;;;;;2070553;28;20121;-81
2021/05/16 02:49:34;;;;;;;10.30;4.00;;;10.80;91.70;;;;;;2072096;28;20026;-82
2021/05/16 02:50:34;;;;;;;9.75;3.80;;;10.80;91.70;;;;;;2073798;28;20103;-81
2021/05/16 02:51:36;;;;;;;10.68;3.65;;;10.80;91.70;;;;;;2073680;28;20029;-81
2021/05/16 02:52:37;;;;;;;8.32;3.53;;;10.70;91.70;;;;;;2063839;28;20433;-81
2021/05/16 02:53:38;;;;;;;9.02;3.58;;;10.70;91.70;;;;;;2071270;28;20100;-81
2021/05/16 02:54:38;;;;;;;7.68;3.30;;;10.70;91.70;;;;;;2073583;28;20120;-81
2021/05/16 02:55:39;;;;;;;7.35;3.15;;;10.80;91.70;;;;;;2066885;28;20106;-81
2021/05/16 02:56:40;;;;;;;9.23;3.30;;;10.80;91.80;;;;;;2079962;28;20017;-81
2021/05/16 02:57:40;;;;;;;10.32;3.92;;;10.80;91.70;;;;;;2073094;28;20108;-81
2021/05/16 02:58:42;;;;;;;11.13;3.67;;;10.70;91.70;;;;;;2071863;28;20095;-83
2021/05/16 02:59:42;;;;;;;9.50;3.67;;;10.80;91.70;;;;;;2069985;28;20034;-81
2021/05/16 03:00:43;;;;;;;12.25;4.07;;;10.80;91.70;;;;;;2063931;28;20030;-82
2021/05/16 03:01:44;;;;;;;10.10;4.22;;;10.80;91.70;;;;;;2063556;28;20033;-82
2021/05/16 03:02:44;;;;;;;9.07;3.80;;;10.80;91.70;;;;;;2066729;28;20484;-81
2021/05/16 03:03:45;;;;;;;9.00;3.90;;;10.80;91.70;;;;;;2063090;28;20032;-81
2021/05/16 03:04:46;;;;;;;9.45;4.18;;;10.80;91.70;;;;;;2071771;28;20444;-81
2021/05/16 03:05:47;;;;;;;10.45;3.83;;;10.80;91.70;;;;;;2067064;28;20057;-81
2021/05/16 03:06:47;;;;;;;10.45;3.92;;;10.80;91.70;;;;;;2070014;28;20041;-80
2021/05/16 03:07:48;;;;;;;12.40;3.92;;;10.70;91.70;;;;;;2081165;28;20036;-81
2021/05/16 03:08:49;;;;;;;11.75;4.15;;;10.70;91.70;;;;;;2079068;28;20060;-81
2021/05/16 03:09:49;;;;;;;10.20;3.75;;;10.70;91.70;;;;;;2071129;28;20026;-81
2021/05/16 03:10:50;;;;;;;12.30;4.22;;;10.70;91.70;;;;;;2076615;28;20037;-81
2021/05/16 03:11:51;;;;;;;9.65;3.90;;;10.70;91.70;;;;;;2070423;28;20022;-80
2021/05/16 03:12:52;;;;;;;9.88;3.95;;;10.70;91.70;;;;;;2063982;28;20073;-81
2021/05/16 03:13:53;;;;;;;11.07;4.25;;;10.80;91.70;;;;;;2065341;28;20027;-81
2021/05/16 03:14:53;;;;;;;12.30;3.95;;;10.70;91.70;;;;;;2072116;28;20033;-83
2021/05/16 03:15:55;;;;;;;11.35;3.90;;;10.70;91.70;;;;;;2062281;28;20022;-81
2021/05/16 03:16:58;;;;;;;11.73;3.63;;;10.70;91.70;;;;;;2070926;28;20034;-81
2021/05/16 03:17:58;;;;;;;9.02;3.30;;;10.80;91.80;;;;;;2066562;28;20439;-81
2021/05/16 03:18:59;;;;;;;9.77;3.30;;;10.80;91.70;;;;;;2071696;28;20022;-82
2021/05/16 03:20:00;;;;;;;9.25;3.28;;;10.80;91.70;;;;;;2076566;28;20034;-81
2021/05/16 03:21:00;;;;;;;9.88;3.83;;;10.80;91.70;;;;;;2069861;28;20041;-80
2021/05/16 03:22:01;;;;;;;9.95;3.70;;;10.80;91.70;;;;;;2069138;28;20077;-81
2021/05/16 03:23:02;;;;;;;8.18;3.33;;;10.80;91.70;;;;;;2068795;28;20057;-81
2021/05/16 03:24:03;;;;;;;10.15;3.88;;;10.80;91.70;;;;;;2071305;28;20022;-81
2021/05/16 03:25:06;;;;;;;9.68;3.72;;;10.80;91.70;;;;;;2078121;28;20133;-81
2021/05/16 03:26:07;;;;;;;9.48;3.28;;;10.80;91.70;;;;;;2080106;28;20028;-81
2021/05/16 03:27:07;;;;;;;10.07;3.40;;;10.70;91.70;;;;;;2070739;28;20029;-82
2021/05/16 03:28:08;;;;;;;10.80;3.63;;;10.80;91.70;;;;;;2062392;28;20033;-82
2021/05/16 03:29:09;;;;;;;10.27;3.42;;;10.80;91.70;;;;;;2073556;28;20057;-82
2021/05/16 03:30:12;;;;;;;6.57;3.35;;;10.80;91.70;;;;;;2062669;28;20022;-81
2021/05/16 03:31:12;;;;;;;10.07;3.67;;;10.70;91.70;;;;;;2075667;28;20540;-82
2021/05/16 03:32:13;;;;;;;11.27;3.88;;;10.70;91.70;;;;;;2070700;28;20034;-82
2021/05/16 03:33:14;;;;;;;7.65;3.10;;;10.80;91.70;;;;;;2071384;28;20030;-82
2021/05/16 03:34:14;;;;;;;7.30;2.95;;;10.80;91.70;;;;;;2066008;28;20065;-82
2021/05/16 03:35:15;;;;;;;8.82;3.20;;;10.80;91.70;;;;;;2062260;28;20026;-81
2021/05/16 03:36:16;;;;;;;7.43;3.28;;;10.80;91.70;;;;;;2063765;28;20030;-82
2021/05/16 03:37:16;;;;;;;10.00;3.35;;;10.80;91.70;;;;;;2075379;28;20659;-82
2021/05/16 03:38:17;;;;;;;8.32;2.80;;;10.80;91.70;;;;;;2084850;28;20528;-82
2021/05/16 03:39:18;;;;;;;10.65;3.15;;;10.70;91.70;;;;;;2077846;28;20025;-82
2021/05/16 03:40:19;;;;;;;11.10;3.17;;;10.80;91.70;;;;;;2071222;28;20022;-81
2021/05/16 03:41:20;;;;;;;8.50;3.25;;;10.70;91.70;;;;;;2075107;28;20037;-82
2021/05/16 03:42:20;;;;;;;7.20;2.90;;;10.70;91.70;;;;;;2078896;28;20444;-82
2021/05/16 03:43:22;;;;;;;7.20;2.80;;;10.70;91.70;;;;;;2071047;28;20030;-82
2021/05/16 03:44:26;;;;;;;8.45;3.33;;;10.70;91.70;;;;;;2072118;28;20041;-82
2021/05/16 03:45:27;;;;;;;6.95;2.97;;;10.70;91.70;;;;;;2071257;28;20088;-82
2021/05/16 03:46:27;;;;;;;11.52;3.45;;;10.70;91.70;;;;;;2061888;28;20026;-82
2021/05/16 03:47:28;;;;;;;8.70;3.30;;;10.70;91.70;;;;;;2066766;28;20564;-82
2021/05/16 03:48:29;;;;;;;9.25;3.28;;;10.70;92.00;;;;;;2064262;28;20145;-82
2021/05/16 03:49:29;;;;;;;9.43;3.75;;;10.70;91.70;;;;;;2058937;28;20030;-82
2021/05/16 03:50:30;;;;;;;11.25;3.42;;;10.70;92.00;;;;;;2065184;28;20033;-82
2021/05/16 03:51:31;;;;;;;11.13;3.90;;;10.70;91.70;;;;;;2061041;28;20118;-83
2021/05/16 03:52:32;;;;;;;11.80;3.90;;;10.70;91.70;;;;;;2071032;28;20040;-81
2021/05/16 03:53:33;;;;;;;9.98;3.72;;;10.70;91.60;;;;;;2069182;28;20026;-83
2021/05/16 03:54:33;;;;;;;8.90;3.55;;;10.70;91.60;;;;;;2067134;28;20076;-82
2021/05/16 03:55:34;;;;;;;10.35;3.90;;;10.70;91.70;;;;;;2069712;28;20029;-82
2021/05/16 03:56:35;;;;;;;9.20;3.63;;;10.70;91.70;;;;;;2064884;28;20038;-82
2021/05/16 03:57:35;;;;;;;9.98;3.92;;;10.70;91.70;;;;;;2072230;28;20038;-82
2021/05/16 03:58:36;;;;;;;9.27;3.72;;;10.70;91.70;;;;;;2071295;28;20381;-81
2021/05/16 03:59:37;;;;;;;8.75;3.60;;;10.70;91.70;;;;;;2068566;28;20042;-82
2021/05/16 04:00:38;;;;;;;7.60;3.67;;;10.70;91.70;;;;;;2079818;28;20076;-82
2021/05/16 04:01:38;;;;;;;9.63;3.85;;;10.70;91.70;;;;;;2079843;28;20028;-82
2021/05/16 04:02:40;;;;;;;9.13;4.22;;;10.60;91.60;;;;;;2070999;28;20477;-82
2021/05/16 04:03:40;;;;;;;7.97;3.80;;;10.60;91.70;;;;;;2075594;28;20046;-82
2021/05/16 04:04:41;;;;;;;11.70;3.85;;;10.70;91.70;;;;;;2081707;28;20365;-82
2021/05/16 04:05:42;;;;;;;12.30;4.47;;;10.70;91.70;;;;;;2071758;28;20037;-82
2021/05/16 04:06:42;;;;;;;10.63;4.25;;;10.70;91.70;;;;;;2063653;28;20571;-82
2021/05/16 04:07:44;;;;;;;13.15;4.82;;;10.60;91.60;;;;;;2068906;28;20053;-81
2021/05/16 04:08:44;;;;;;;10.93;4.20;;;10.70;91.70;;;;;;2075412;28;20124;-81
2021/05/16 04:09:45;;;;;;;11.82;4.25;;;10.60;91.60;;;;;;2075107;28;20034;-82
2021/05/16 04:10:45;;;;;;;11.55;4.28;;;10.70;91.60;;;;;;2070835;28;20053;-82
2021/05/16 04:11:46;;;;;;;9.60;4.30;;;10.60;91.60;;;;;;2078307;28;20029;-81
2021/05/16 04:12:47;;;;;;;13.13;4.55;;;10.60;91.60;;;;;;2077014;28;20037;-82
2021/05/16 04:13:47;;;;;;;13.25;4.82;;;10.70;91.60;;;;;;2079051;28;20120;-81
2021/05/16 04:14:50;;;;;;;11.48;4.38;;;10.70;91.60;;;;;;2073481;28;21176;-82
2021/05/16 04:15:51;;;;;;;12.30;4.50;;;10.70;91.60;;;;;;2072668;28;20034;-82
2021/05/16 04:16:51;;;;;;;9.80;4.50;;;10.60;91.60;;;;;;2075824;28;20029;-82
2021/05/16 04:17:52;;;;;;;10.38;4.88;;;10.60;91.60;;;;;;2078352;28;20074;-81
2021/05/16 04:18:53;;;;;;;11.18;4.38;;;10.60;91.60;;;;;;2071129;28;20152;-82
2021/05/16 04:19:53;;;;;;;11.13;4.97;;;10.70;91.60;;;;;;2071526;28;20149;-82
2021/05/16 04:20:54;;;;;;;11.30;4.85;;;10.60;91.80;;;;;;2080011;28;20139;-82
2021/05/16 04:21:55;;;;;;;11.50;4.60;;;10.70;91.60;;;;;;2071643;28;20054;-82
2021/05/16 04:22:55;;;;;;;11.50;5.00;;;10.60;91.60;;;;;;2062554;28;20121;-81
2021/05/16 04:23:56;;;;;;;12.77;4.93;;;10.60;91.60;;;;;;2067628;28;20091;-82
2021/05/16 04:24:58;;;;;;;13.30;5.00;;;10.70;91.60;;;;;;2076471;28;20387;-82
2021/05/16 04:25:58;;;;;;;13.30;5.28;;;10.70;91.50;;;;;;2076265;28;20026;-82
2021/05/16 04:26:59;;;;;;;14.35;5.18;;;10.60;91.50;;;;;;2067023;28;20045;-81
2021/05/16 04:28:00;;;;;;;11.20;5.20;;;10.60;91.50;;;;;;2068621;28;20041;-82
2021/05/16 04:29:00;;;;;;;12.52;5.40;;;10.60;91.50;;;;;;2068702;28;20046;-81
2021/05/16 04:30:01;;;;;;;14.93;5.30;;;10.70;91.60;;;;;;2068585;28;20182;-81
2021/05/16 04:31:02;;;;;;;12.10;5.50;;;10.60;91.50;;;;;;2077492;28;20018;-82
2021/05/16 04:32:03;;;;;;;14.57;5.72;;;10.60;91.50;;;;;;2074064;28;20088;-82
2021/05/16 04:33:04;;;;;;;13.02;5.85;;;10.60;91.50;;;;;;2065299;28;20084;-81
2021/05/16 04:34:04;;;;;;;14.70;5.70;;;10.60;91.50;;;;;;2058909;28;20035;-81
2021/05/16 04:35:05;;;;;;;15.18;6.55;;;10.60;91.50;;;;;;2063327;28;20022;-81
2021/05/16 04:36:06;;;;;;;12.50;5.68;;;10.60;91.50;;;;;;2073037;28;20069;-82
2021/05/16 04:37:07;;;;;;;13.40;5.85;;;10.60;91.50;;;;;;2067717;28;20019;-81
2021/05/16 04:38:08;;;;;;;13.25;6.13;;;10.60;91.50;;;;;;2084425;28;20168;-81
2021/05/16 04:39:08;;;;;;;12.90;5.40;;;10.60;91.50;;;;;;2068703;28;20084;-81
2021/05/16 04:40:10;;;;;;;15.73;5.65;;;10.60;91.50;;;;;;2069871;28;20081;-81
2021/05/16 04:41:11;;;;;;;14.50;5.95;;;10.60;91.50;;;;;;2079638;28;20202;-81
2021/05/16 04:42:11;;;;;;;11.68;5.55;;;10.60;91.50;;;;;;2073460;28;20109;-81
2021/05/16 04:43:13;;;;;;;13.55;6.00;;;10.60;91.50;;;;;;2076671;28;20042;-81
2021/05/16 04:44:14;;;;;;;14.23;6.03;;;10.60;91.50;;;;;;2076037;28;20029;-81
2021/05/16 04:45:15;;;;;;;13.05;5.55;;;10.60;91.50;;;;;;2063639;28;20484;-82
2021/05/16 04:46:15;;;;;;;13.43;5.18;;;10.60;91.50;;;;;;2058902;28;20477;-81
2021/05/16 04:47:16;;;;;;;12.98;5.60;;;10.60;91.50;;;;;;2058380;28;20038;-81
2021/05/16 04:48:17;;;;;;;10.63;5.43;;;10.60;91.50;;;;;;2066428;28;20030;-81
2021/05/16 04:49:17;;;;;;;13.15;5.38;;;10.70;91.50;;;;;;2072780;28;20040;-82
2021/05/16 04:50:19;;;;;;;11.73;5.22;;;10.60;91.50;;;;;;2070907;28;20064;-82
2021/05/16 04:51:19;;;;;;;14.80;5.82;;;10.70;91.50;;;;;;2076343;28;20021;-82
2021/05/16 04:52:20;;;;;;;14.75;6.00;;;10.70;91.50;;;;;;2078750;28;20071;-82
2021/05/16 04:53:21;;;;;;;11.80;5.60;;;10.70;91.50;;;;;;2056989;28;20094;-82
2021/05/16 04:54:22;;;;;;;14.45;6.30;;;10.70;91.50;;;;;;2065271;28;20045;-81
2021/05/16 04:55:22;;;;;;;11.90;5.70;;;10.70;91.50;;;;;;2073173;28;20474;-81
2021/05/16 04:56:23;;;;;;;17.55;5.85;;;10.70;91.50;;;;;;2057874;28;20129;-81
2021/05/16 04:57:24;;;;;;;15.02;5.72;;;10.60;91.40;;;;;;2063003;28;20034;-82
2021/05/16 04:58:25;;;;;;;11.98;6.28;;;10.70;91.40;;;;;;2070121;28;20026;-82
2021/05/16 04:59:26;;;;;;;14.23;5.70;;;10.70;91.40;;;;;;2068862;28;20112;-81
2021/05/16 05:00:26;;;;;;;14.65;5.90;;;10.70;91.40;;;;;;2064734;28;20567;-81
2021/05/16 05:01:27;;;;;;;14.57;6.22;;;10.60;91.40;;;;;;2069597;28;20026;-81
2021/05/16 05:02:28;;;;;;;12.18;6.00;;;10.70;91.40;;;;;;2060343;28;20031;-81
2021/05/16 05:03:28;;;;;;;15.60;6.47;;;10.60;91.40;;;;;;2067336;28;20081;-80
2021/05/16 05:04:29;;;;;;;16.05;6.30;;;10.60;91.40;;;;;;2086560;28;20025;-81
2021/05/16 05:05:30;;;;;;;14.32;6.13;;;10.70;91.40;;;;;;2081302;28;20081;-81
2021/05/16 05:06:30;;;;;;;12.45;6.43;;;10.70;91.40;;;;;;2071526;28;20033;-81
2021/05/16 05:07:31;;;;;;;11.40;5.95;;;10.70;91.40;;;;;;2068726;28;20101;-80
2021/05/16 05:08:32;;;;;;;15.95;6.40;;;10.70;91.40;;;;;;2072978;28;20037;-81
2021/05/16 05:09:34;;;;;;;17.13;6.63;;;10.70;91.40;;;;;;2071637;28;20120;-80
2021/05/16 05:10:34;;;;;;;14.65;6.35;;;10.70;91.40;;;;;;2081738;28;20032;-81
2021/05/16 05:11:35;;;;;;;12.75;6.05;;;10.70;91.40;;;;;;2073612;28;20061;-81
2021/05/16 05:12:36;;;;;;;14.65;6.88;;;10.70;91.40;;;;;;2074547;28;20791;-81
2021/05/16 05:13:37;;;;;;;14.98;6.00;;;10.70;91.40;;;;;;2076579;28;20106;-80
2021/05/16 05:14:37;;;;;;;17.30;6.55;;;10.70;91.40;;;;;;2072879;28;20034;-81
2021/05/16 05:15:38;;;;;;;14.35;6.55;;;10.70;91.40;;;;;;2056915;28;20038;-80
2021/05/16 05:16:39;;;;;;;11.55;6.18;;;10.70;91.30;;;;;;2071037;28;20034;-81